createdAt,value
2023-05-02T00:00:20.666Z,100667.60
2023-05-02T00:03:11.196Z,100662.39
2023-05-02T00:05:40.656Z,100662.23
2023-05-02T00:08:11.757Z,100655.28
2023-05-02T00:10:40.203Z,100650.33
2023-05-02T00:13:08.526Z,100647.24
2023-05-02T00:15:37.081Z,100647.67
2023-05-02T00:18:05.832Z,100649.08
2023-05-02T00:20:34.497Z,100651.39
2023-05-02T00:23:03.090Z,100645.16
2023-05-02T00:25:32.031Z,100644.92
2023-05-02T00:28:00.486Z,100636.33
2023-05-02T00:30:30.323Z,100635.95
2023-05-02T00:32:58.668Z,100636.41
2023-05-02T00:35:27.441Z,100638.38
2023-05-02T00:37:56.693Z,100639.48
2023-05-02T00:40:25.107Z,100636.73
2023-05-02T00:42:53.819Z,100628.39
2023-05-02T00:45:22.743Z,100627.34
2023-05-02T00:47:51.219Z,100624.56
2023-05-02T00:50:20.328Z,100621.81
2023-05-02T00:52:49.167Z,100619.39
2023-05-02T00:55:17.847Z,100616.70
2023-05-02T00:57:47.944Z,100618.02
2023-05-02T01:00:16.647Z,100620.36
2023-05-02T01:02:51.725Z,100617.14
2023-05-02T01:05:26.900Z,100619.58
2023-05-02T01:08:11.742Z,100617.61
2023-05-02T01:10:49.860Z,100615.30
2023-05-02T01:13:22.176Z,100613.37
2023-05-02T01:15:52.751Z,100613.87
2023-05-02T01:18:23.908Z,100607.13
2023-05-02T01:20:56.896Z,100605.50
2023-05-02T01:23:31.062Z,100607.59
2023-05-02T01:26:13.571Z,100609.26
2023-05-02T01:29:00.455Z,100602.29
2023-05-02T01:31:31.639Z,100599.10
2023-05-02T01:34:01.109Z,100602.48
2023-05-02T01:36:31.894Z,100603.86
2023-05-02T01:39:02.021Z,100601.61
2023-05-02T01:41:32.109Z,100594.70
2023-05-02T01:44:02.837Z,100596.13
2023-05-02T01:46:33.889Z,100590.73
2023-05-02T01:49:04.180Z,100586.61
2023-05-02T01:51:35.053Z,100589.98
2023-05-02T01:54:05.481Z,100581.46
2023-05-02T01:56:36.849Z,100578.04
2023-05-02T01:59:06.656Z,100575.80
2023-05-02T02:01:36.475Z,100573.47
2023-05-02T02:04:07.022Z,100567.05
2023-05-02T02:06:36.858Z,100567.61
2023-05-02T02:09:05.534Z,100564.98
2023-05-02T02:11:36.756Z,100563.89
2023-05-02T02:14:07.869Z,100563.05
2023-05-02T02:16:39.253Z,100562.27
2023-05-02T02:19:10.840Z,100559.40
2023-05-02T02:21:40.560Z,100557.29
2023-05-02T02:24:09.709Z,100553.96
2023-05-02T02:26:38.391Z,100548.17
2023-05-02T02:29:06.850Z,100547.89
2023-05-02T02:31:35.730Z,100552.25
2023-05-02T02:34:04.668Z,100551.04
2023-05-02T02:36:39.954Z,100552.18
2023-05-02T02:39:24.941Z,100551.06
2023-05-02T02:42:03.641Z,100550.46
2023-05-02T02:44:43.364Z,100549.09
2023-05-02T02:47:22.159Z,100546.98
2023-05-02T02:49:55.296Z,100545.38
2023-05-02T02:52:36.070Z,100550.68
2023-05-02T02:55:09.922Z,100548.19
2023-05-02T02:57:41.148Z,100545.45
2023-05-02T03:00:15.768Z,100544.68
2023-05-02T03:02:44.394Z,100543.88
2023-05-02T03:05:13.845Z,100538.98
2023-05-02T03:07:42.320Z,100540.55
2023-05-02T03:10:11.543Z,100541.46
2023-05-02T03:12:40.782Z,100536.02
2023-05-02T03:15:20.882Z,100542.26
2023-05-02T03:17:49.581Z,100543.05
2023-05-02T03:20:18.392Z,100544.20
2023-05-02T03:22:47.172Z,100543.98
2023-05-02T03:25:18.262Z,100540.52
2023-05-02T03:27:46.938Z,100539.50
2023-05-02T03:30:15.445Z,100539.82
2023-05-02T03:32:43.838Z,100538.14
2023-05-02T03:35:13.260Z,100539.05
2023-05-02T03:37:43.059Z,100541.63
2023-05-02T03:40:12.465Z,100544.86
2023-05-02T03:42:43.131Z,100544.90
2023-05-02T03:45:12.651Z,100543.91
2023-05-02T03:47:43.129Z,100542.23
2023-05-02T03:50:13.439Z,100542.23
2023-05-02T03:52:43.412Z,100543.58
2023-05-02T03:55:12.207Z,100543.98
2023-05-02T03:57:41.057Z,100544.95
2023-05-02T04:00:12.143Z,100547.91
2023-05-02T04:02:42.076Z,100546.80
2023-05-02T04:05:11.255Z,100547.74
2023-05-02T04:07:41.368Z,100550.68
2023-05-02T04:10:15.826Z,100553.05
2023-05-02T04:12:46.042Z,100555.70
2023-05-02T04:15:15.217Z,100554.89
2023-05-02T04:17:43.675Z,100554.99
2023-05-02T04:20:13.185Z,100550.59
2023-05-02T04:22:41.586Z,100549.84
2023-05-02T04:25:10.267Z,100547.18
2023-05-02T04:27:38.784Z,100549.36
2023-05-02T04:30:09.970Z,100550.46
2023-05-02T04:32:39.068Z,100549.94
2023-05-02T04:35:09.306Z,100553.35
2023-05-02T04:37:38.155Z,100553.05
2023-05-02T04:40:12.329Z,100548.31
2023-05-02T04:42:39.827Z,100554.16
2023-05-02T04:45:10.003Z,100550.75
2023-05-02T04:47:39.340Z,100555.16
2023-05-02T04:50:10.309Z,100553.59
2023-05-02T04:52:38.999Z,100551.86
2023-05-02T04:55:09.380Z,100549.61
2023-05-02T04:57:39.299Z,100551.76
2023-05-02T05:00:11.095Z,100550.90
2023-05-02T05:02:39.658Z,100550.00
2023-05-02T05:05:09.826Z,100551.11
2023-05-02T05:07:40.304Z,100552.21
2023-05-02T05:10:11.167Z,100551.36
2023-05-02T05:12:41.474Z,100547.02
2023-05-02T05:15:11.403Z,100541.16
2023-05-02T05:17:40.059Z,100539.84
2023-05-02T05:20:10.372Z,100535.23
2023-05-02T05:22:42.504Z,100536.28
2023-05-02T05:25:11.863Z,100533.73
2023-05-02T05:27:40.266Z,100533.34
2023-05-02T05:30:10.860Z,100529.86
2023-05-02T05:32:39.484Z,100529.41
2023-05-02T05:35:10.413Z,100531.04
2023-05-02T05:37:39.090Z,100531.65
2023-05-02T05:40:10.158Z,100531.02
2023-05-02T05:42:39.058Z,100531.23
2023-05-02T05:45:11.752Z,100532.06
2023-05-02T05:47:41.288Z,100531.15
2023-05-02T05:50:10.794Z,100531.89
2023-05-02T05:52:39.369Z,100530.46
2023-05-02T05:55:09.838Z,100530.75
2023-05-02T05:57:38.716Z,100530.49
2023-05-02T06:00:10.731Z,100522.91
2023-05-02T06:02:39.697Z,100520.13
2023-05-02T06:05:09.450Z,100521.60
2023-05-02T06:07:38.584Z,100520.73
2023-05-02T06:10:10.701Z,100519.47
2023-05-02T06:12:40.465Z,100517.82
2023-05-02T06:15:09.993Z,100520.20
2023-05-02T06:17:38.451Z,100517.66
2023-05-02T06:20:11.876Z,100521.77
2023-05-02T06:22:40.391Z,100523.41
2023-05-02T06:25:10.109Z,100524.79
2023-05-02T06:27:38.509Z,100523.08
2023-05-02T06:30:09.346Z,100526.33
2023-05-02T06:32:37.840Z,100522.22
2023-05-02T06:35:07.763Z,100525.11
2023-05-02T06:37:37.184Z,100524.14
2023-05-02T06:40:09.919Z,100526.70
2023-05-02T06:42:38.573Z,100523.62
2023-05-02T06:45:08.664Z,100524.27
2023-05-02T06:47:37.495Z,100520.90
2023-05-02T06:50:08.616Z,100518.87
2023-05-02T06:52:37.038Z,100521.90
2023-05-02T06:55:07.077Z,100522.14
2023-05-02T06:57:35.814Z,100521.66
2023-05-02T07:00:06.912Z,100525.91
2023-05-02T07:02:39.486Z,100522.63
2023-05-02T07:05:10.638Z,100524.34
2023-05-02T07:07:39.295Z,100524.88
2023-05-02T07:10:10.229Z,100525.52
2023-05-02T07:12:39.247Z,100521.60
2023-05-02T07:15:09.677Z,100523.06
2023-05-02T07:17:38.152Z,100522.34
2023-05-02T07:20:10.114Z,100518.12
2023-05-02T07:22:40.692Z,100519.97
2023-05-02T07:25:10.280Z,100519.30
2023-05-02T07:27:38.741Z,100518.41
2023-05-02T07:30:09.263Z,100522.03
2023-05-02T07:32:39.520Z,100518.33
2023-05-02T07:35:09.292Z,100516.20
2023-05-02T07:37:38.469Z,100519.68
2023-05-02T07:40:09.838Z,100513.47
2023-05-02T07:42:40.922Z,100517.76
2023-05-02T07:45:10.716Z,100511.48
2023-05-02T07:47:39.291Z,100508.55
2023-05-02T07:50:09.971Z,100506.88
2023-05-02T07:52:38.745Z,100515.83
2023-05-02T07:55:08.772Z,100513.28
2023-05-02T07:57:37.424Z,100514.53
2023-05-02T08:00:09.529Z,100511.09
2023-05-02T08:02:38.297Z,100509.67
2023-05-02T08:05:08.830Z,100503.80
2023-05-02T08:07:37.474Z,100504.49
2023-05-02T08:10:11.048Z,100504.61
2023-05-02T08:12:40.229Z,100507.64
2023-05-02T08:15:13.164Z,100514.59
2023-05-02T08:17:41.734Z,100515.23
2023-05-02T08:20:11.862Z,100521.88
2023-05-02T08:22:40.488Z,100522.04
2023-05-02T08:25:10.209Z,100527.70
2023-05-02T08:27:38.597Z,100525.58
2023-05-02T08:30:09.295Z,100525.09
2023-05-02T08:32:40.581Z,100516.67
2023-05-02T08:35:11.807Z,100520.56
2023-05-02T08:37:40.740Z,100525.93
2023-05-02T08:40:13.391Z,100530.14
2023-05-02T08:42:44.320Z,100532.33
2023-05-02T08:45:16.533Z,100537.48
2023-05-02T08:47:46.945Z,100538.55
2023-05-02T08:50:16.686Z,100539.83
2023-05-02T08:52:45.823Z,100542.70
2023-05-02T08:55:14.587Z,100540.94
2023-05-02T08:57:44.329Z,100541.14
2023-05-02T09:00:15.776Z,100543.45
2023-05-02T09:03:00.458Z,100540.52
2023-05-02T09:05:29.887Z,100532.05
2023-05-02T09:08:01.351Z,100533.98
2023-05-02T09:10:31.532Z,100533.53
2023-05-02T09:13:36.883Z,100537.19
2023-05-02T09:16:07.970Z,100537.90
2023-05-02T09:18:37.819Z,100539.86
2023-05-02T09:21:08.550Z,100539.48
2023-05-02T09:23:41.874Z,100537.91
2023-05-02T09:26:15.780Z,100538.91
2023-05-02T09:28:46.586Z,100540.27
2023-05-02T09:31:26.999Z,100541.50
2023-05-02T09:34:10.373Z,100549.95
2023-05-02T09:36:42.369Z,100559.33
2023-05-02T09:39:13.396Z,100557.38
2023-05-02T09:41:42.413Z,100559.52
2023-05-02T09:44:12.324Z,100562.98
2023-05-02T09:46:43.565Z,100566.42
2023-05-02T09:49:14.538Z,100572.08
2023-05-02T09:51:43.462Z,100576.35
2023-05-02T09:54:12.508Z,100572.57
2023-05-02T09:56:55.902Z,100574.46
2023-05-02T09:59:25.066Z,100585.67
2023-05-02T10:01:57.620Z,100585.71
2023-05-02T10:04:27.323Z,100588.85
2023-05-02T10:07:00.188Z,100586.61
2023-05-02T10:09:31.986Z,100589.45
2023-05-02T10:12:12.438Z,100594.92
2023-05-02T10:14:41.695Z,100599.12
2023-05-02T10:17:14.068Z,100598.98
2023-05-02T10:19:51.754Z,100602.63
2023-05-02T10:22:20.848Z,100601.70
2023-05-02T10:24:50.094Z,100603.13
2023-05-02T10:27:19.039Z,100606.55
2023-05-02T10:29:47.615Z,100609.61
2023-05-02T10:32:17.646Z,100608.59
2023-05-02T10:34:46.957Z,100610.83
2023-05-02T10:37:16.733Z,100621.73
2023-05-02T10:39:46.409Z,100624.48
2023-05-02T10:42:15.408Z,100629.30
2023-05-02T10:44:43.957Z,100632.58
2023-05-02T10:47:22.746Z,100631.47
2023-05-02T10:49:53.468Z,100636.04
2023-05-02T10:52:29.471Z,100636.13
2023-05-02T10:55:22.027Z,100647.09
2023-05-02T10:58:23.168Z,100648.73
2023-05-02T11:00:51.690Z,100649.27
2023-05-02T11:03:54.148Z,100657.40
2023-05-02T11:06:23.057Z,100663.77
2023-05-02T11:08:51.847Z,100667.95
2023-05-02T11:11:41.544Z,100675.73
2023-05-02T11:14:11.620Z,100682.59
2023-05-02T11:17:06.886Z,100685.75
2023-05-02T11:20:26.822Z,100701.68
2023-05-02T11:22:59.703Z,100708.77
2023-05-02T11:25:40.029Z,100718.48
2023-05-02T11:28:29.513Z,100726.19
2023-05-02T11:30:58.117Z,100734.92
2023-05-02T11:33:29.942Z,100741.34
2023-05-02T11:35:58.420Z,100747.47
2023-05-02T11:38:36.157Z,100751.27
2023-05-02T11:41:04.823Z,100766.20
2023-05-02T11:43:34.763Z,100767.27
2023-05-02T11:46:05.602Z,100770.44
2023-05-02T11:48:34.375Z,100772.80
2023-05-02T11:51:04.781Z,100770.18
2023-05-02T11:53:34.236Z,100771.56
2023-05-02T11:56:04.998Z,100774.37
2023-05-02T11:58:34.030Z,100781.18
2023-05-02T12:01:13.337Z,100785.31
2023-05-02T12:03:42.624Z,100783.20
2023-05-02T12:06:15.682Z,100775.44
2023-05-02T12:08:45.057Z,100779.74
2023-05-02T12:11:16.312Z,100782.22
2023-05-02T12:13:49.111Z,100790.20
2023-05-02T12:16:18.297Z,100801.45
2023-05-02T12:18:47.502Z,100798.95
2023-05-02T12:21:16.261Z,100791.86
2023-05-02T12:23:47.480Z,100788.33
2023-05-02T12:26:21.383Z,100784.63
2023-05-02T12:28:51.069Z,100789.24
2023-05-02T12:31:19.563Z,100790.17
2023-05-02T12:33:49.651Z,100790.75
2023-05-02T12:36:19.380Z,100795.45
2023-05-02T12:38:52.493Z,100792.94
2023-05-02T12:41:32.090Z,100797.65
2023-05-02T12:44:00.871Z,100799.79
2023-05-02T12:46:30.893Z,100798.25
2023-05-02T12:49:08.266Z,100792.07
2023-05-02T12:51:37.684Z,100788.61
2023-05-02T12:54:06.887Z,100785.54
2023-05-02T12:56:43.933Z,100788.86
2023-05-02T12:59:27.619Z,100792.88
2023-05-02T13:01:57.246Z,100794.05
2023-05-02T13:04:35.812Z,100800.17
2023-05-02T13:07:05.323Z,100796.70
2023-05-02T13:09:33.732Z,100798.32
2023-05-02T13:12:05.995Z,100798.15
2023-05-02T13:14:34.837Z,100804.86
2023-05-02T13:17:08.112Z,100814.71
2023-05-02T13:19:38.753Z,100816.74
2023-05-02T13:22:11.176Z,100820.52
2023-05-02T13:24:39.884Z,100823.01
2023-05-02T13:27:09.347Z,100823.57
2023-05-02T13:29:37.793Z,100821.05
2023-05-02T13:32:06.853Z,100821.33
2023-05-02T13:34:35.236Z,100821.90
2023-05-02T13:37:04.351Z,100820.52
2023-05-02T13:39:33.220Z,100820.11
2023-05-02T13:42:03.739Z,100821.08
2023-05-02T13:44:34.313Z,100819.91
2023-05-02T13:47:05.176Z,100822.52
2023-05-02T13:49:33.701Z,100817.84
2023-05-02T13:52:02.249Z,100817.80
2023-05-02T13:54:30.994Z,100815.13
2023-05-02T13:56:59.809Z,100819.88
2023-05-02T13:59:28.454Z,100820.16
2023-05-02T14:01:56.932Z,100822.23
2023-05-02T14:04:25.420Z,100824.89
2023-05-02T14:06:54.373Z,100825.64
2023-05-02T14:09:22.921Z,100825.95
2023-05-02T14:11:51.423Z,100827.14
2023-05-02T14:14:20.402Z,100828.77
2023-05-02T14:16:51.048Z,100827.88
2023-05-02T14:19:19.791Z,100830.27
2023-05-02T14:21:49.026Z,100832.80
2023-05-02T14:24:19.024Z,100831.05
2023-05-02T14:26:47.507Z,100827.63
2023-05-02T14:29:16.374Z,100829.84
2023-05-02T14:31:45.624Z,100830.45
2023-05-02T14:34:14.526Z,100830.70
2023-05-02T14:36:43.802Z,100830.98
2023-05-02T14:39:12.492Z,100832.81
2023-05-02T14:41:40.979Z,100838.08
2023-05-02T14:44:09.411Z,100836.14
2023-05-02T14:46:39.039Z,100837.73
2023-05-02T14:49:07.921Z,100842.75
2023-05-02T14:51:38.967Z,100841.87
2023-05-02T14:54:08.180Z,100835.18
2023-05-02T14:56:36.805Z,100838.89
2023-05-02T14:59:05.526Z,100839.99
2023-05-02T15:01:35.053Z,100834.02
2023-05-02T15:04:08.201Z,100830.89
2023-05-02T15:06:37.725Z,100836.23
2023-05-02T15:09:06.846Z,100838.77
2023-05-02T15:11:35.776Z,100842.14
2023-05-02T15:14:04.313Z,100838.64
2023-05-02T15:16:33.117Z,100838.61
2023-05-02T15:19:01.923Z,100834.76
2023-05-02T15:21:32.218Z,100833.59
2023-05-02T15:24:03.568Z,100837.55
2023-05-02T15:26:32.642Z,100832.39
2023-05-02T15:29:01.285Z,100828.33
2023-05-02T15:31:31.459Z,100828.13
2023-05-02T15:34:00.534Z,100828.45
2023-05-02T15:36:29.243Z,100826.45
2023-05-02T15:38:59.994Z,100825.98
2023-05-02T15:41:28.882Z,100828.44
2023-05-02T15:43:58.324Z,100828.83
2023-05-02T15:46:27.184Z,100826.35
2023-05-02T15:48:56.388Z,100824.56
2023-05-02T15:51:26.507Z,100822.80
2023-05-02T15:53:55.640Z,100821.77
2023-05-02T15:56:24.380Z,100820.89
2023-05-02T15:58:53.243Z,100821.55
2023-05-02T16:01:23.502Z,100828.34
2023-05-02T16:03:56.066Z,100830.01
2023-05-02T16:06:24.785Z,100826.11
2023-05-02T16:08:53.313Z,100829.19
2023-05-02T16:11:21.971Z,100825.38
2023-05-02T16:13:52.186Z,100830.73
2023-05-02T16:16:20.787Z,100829.76
2023-05-02T16:18:50.016Z,100829.51
2023-05-02T16:21:18.816Z,100831.14
2023-05-02T16:23:47.668Z,100830.48
2023-05-02T16:26:16.727Z,100833.41
2023-05-02T16:28:45.137Z,100832.11
2023-05-02T16:31:14.333Z,100836.55
2023-05-02T16:33:42.944Z,100840.85
2023-05-02T16:36:11.498Z,100843.29
2023-05-02T16:38:40.633Z,100849.52
2023-05-02T16:41:09.716Z,100850.95
2023-05-02T16:43:38.573Z,100849.10
2023-05-02T16:46:07.643Z,100848.05
2023-05-02T16:48:36.206Z,100850.08
2023-05-02T16:51:05.462Z,100852.84
2023-05-02T16:53:33.923Z,100851.27
2023-05-02T16:56:03.695Z,100853.61
2023-05-02T16:58:33.596Z,100854.08
2023-05-02T17:01:06.228Z,100853.40
2023-05-02T17:03:34.831Z,100850.06
2023-05-02T17:06:03.494Z,100856.86
2023-05-02T17:08:32.061Z,100855.48
2023-05-02T17:11:01.171Z,100855.17
2023-05-02T17:13:33.863Z,100858.23
2023-05-02T17:16:05.526Z,100859.16
2023-05-02T17:18:33.990Z,100858.75
2023-05-02T17:21:04.196Z,100857.73
2023-05-02T17:23:32.698Z,100857.48
2023-05-02T17:26:02.590Z,100857.02
2023-05-02T17:28:31.436Z,100862.38
2023-05-02T17:31:00.668Z,100861.94
2023-05-02T17:33:29.354Z,100863.66
2023-05-02T17:35:57.933Z,100867.72
2023-05-02T17:38:26.695Z,100867.77
2023-05-02T17:40:58.289Z,100872.52
2023-05-02T17:43:26.618Z,100876.41
2023-05-02T17:45:55.325Z,100879.38
2023-05-02T17:48:25.573Z,100876.82
2023-05-02T17:50:57.405Z,100882.79
2023-05-02T17:53:26.620Z,100884.34
2023-05-02T17:55:55.300Z,100883.30
2023-05-02T17:58:27.763Z,100887.80
2023-05-02T18:00:58.282Z,100885.22
2023-05-02T18:03:27.851Z,100888.41
2023-05-02T18:05:56.548Z,100889.25
2023-05-02T18:08:25.054Z,100895.29
2023-05-02T18:10:53.938Z,100896.02
2023-05-02T18:13:22.902Z,100896.75
2023-05-02T18:15:57.032Z,100897.67
2023-05-02T18:18:25.949Z,100900.05
2023-05-02T18:20:55.352Z,100900.83
2023-05-02T18:23:24.139Z,100902.89
2023-05-02T18:25:52.887Z,100901.54
2023-05-02T18:28:21.349Z,100904.07
2023-05-02T18:30:50.192Z,100906.56
2023-05-02T18:33:19.997Z,100907.08
2023-05-02T18:35:50.119Z,100910.09
2023-05-02T18:38:19.164Z,100912.91
2023-05-02T18:40:47.978Z,100918.53
2023-05-02T18:43:17.104Z,100920.77
2023-05-02T18:45:46.133Z,100925.81
2023-05-02T18:48:14.996Z,100931.40
2023-05-02T18:50:44.252Z,100935.34
2023-05-02T18:53:13.351Z,100937.66
2023-05-02T18:55:41.949Z,100944.45
2023-05-02T18:58:10.516Z,100945.92
2023-05-02T19:00:39.038Z,100947.26
2023-05-02T19:03:07.882Z,100953.30
2023-05-02T19:05:39.123Z,100953.98
2023-05-02T19:08:07.556Z,100956.97
2023-05-02T19:10:36.172Z,100961.16
2023-05-02T19:13:05.028Z,100962.64
2023-05-02T19:15:37.670Z,100970.20
2023-05-02T19:18:06.552Z,100976.51
2023-05-02T19:20:35.623Z,100979.35
2023-05-02T19:23:18.981Z,100982.33
2023-05-02T19:25:49.324Z,100984.89
2023-05-02T19:28:19.214Z,100991.18
2023-05-02T19:30:47.594Z,100994.41
2023-05-02T19:33:16.295Z,101000.44
2023-05-02T19:35:44.801Z,101009.42
2023-05-02T19:38:13.798Z,101013.04
2023-05-02T19:40:42.392Z,101021.80
2023-05-02T19:43:11.148Z,101032.13
2023-05-02T19:45:40.114Z,101037.59
2023-05-02T19:48:08.664Z,101041.19
2023-05-02T19:50:37.471Z,101047.54
2023-05-02T19:53:05.968Z,101052.58
2023-05-02T19:55:34.460Z,101055.62
2023-05-02T19:58:03.807Z,101057.96
2023-05-02T20:00:37.179Z,101061.89
2023-05-02T20:03:05.929Z,101073.46
2023-05-02T20:05:34.640Z,101076.62
2023-05-02T20:08:03.554Z,101081.02
2023-05-02T20:10:32.329Z,101080.45
2023-05-02T20:13:01.072Z,101087.05
2023-05-02T20:15:30.259Z,101084.08
2023-05-02T20:18:00.363Z,101088.14
2023-05-02T20:20:29.062Z,101094.20
2023-05-02T20:22:58.663Z,101095.60
2023-05-02T20:25:28.109Z,101097.70
2023-05-02T20:27:56.971Z,101099.30
2023-05-02T20:30:27.863Z,101109.02
2023-05-02T20:32:59.430Z,101111.27
2023-05-02T20:35:35.076Z,101110.39
2023-05-02T20:38:05.657Z,101121.20
2023-05-02T20:40:34.648Z,101122.79
2023-05-02T20:43:05.721Z,101123.27
2023-05-02T20:45:34.608Z,101121.73
2023-05-02T20:48:05.471Z,101123.08
2023-05-02T20:50:34.551Z,101123.76
2023-05-02T20:53:04.128Z,101128.45
2023-05-02T20:55:35.343Z,101134.13
2023-05-02T20:58:04.382Z,101135.43
2023-05-02T21:00:33.522Z,101142.34
2023-05-02T21:03:02.574Z,101138.69
2023-05-02T21:05:31.692Z,101147.64
2023-05-02T21:08:00.764Z,101143.27
2023-05-02T21:10:30.793Z,101146.27
2023-05-02T21:12:59.319Z,101150.13
2023-05-02T21:15:28.962Z,101154.06
2023-05-02T21:18:04.630Z,101158.41
2023-05-02T21:20:45.165Z,101156.57
2023-05-02T21:23:15.063Z,101156.20
2023-05-02T21:25:44.876Z,101158.79
2023-05-02T21:28:13.651Z,101164.44
2023-05-02T21:30:42.719Z,101168.28
2023-05-02T21:33:11.971Z,101167.05
2023-05-02T21:35:43.269Z,101168.24
2023-05-02T21:38:12.112Z,101171.42
2023-05-02T21:40:41.202Z,101175.45
2023-05-02T21:43:09.764Z,101180.67
2023-05-02T21:45:45.186Z,101181.50
2023-05-02T21:48:18.786Z,101186.94
2023-05-02T21:50:50.474Z,101193.64
2023-05-02T21:53:18.919Z,101201.62
2023-05-02T21:55:48.326Z,101212.63
2023-05-02T21:58:20.469Z,101218.67
2023-05-02T22:00:49.052Z,101221.93
2023-05-02T22:03:22.880Z,101224.75
2023-05-02T22:05:53.991Z,101227.96
2023-05-02T22:08:24.015Z,101234.09
2023-05-02T22:10:53.432Z,101239.29
2023-05-02T22:13:23.493Z,101238.84
2023-05-02T22:15:52.144Z,101247.20
2023-05-02T22:18:20.616Z,101248.56
2023-05-02T22:20:48.952Z,101252.85
2023-05-02T22:23:17.550Z,101251.50
2023-05-02T22:25:46.224Z,101253.78
2023-05-02T22:28:14.865Z,101252.55
2023-05-02T22:30:43.676Z,101252.73
2023-05-02T22:33:13.488Z,101251.08
2023-05-02T22:35:44.659Z,101249.17
2023-05-02T22:38:16.413Z,101251.14
2023-05-02T22:40:50.089Z,101248.90
2023-05-02T22:43:19.066Z,101253.55
2023-05-02T22:45:50.720Z,101263.61
2023-05-02T22:48:19.737Z,101266.83
2023-05-02T22:50:51.479Z,101269.30
2023-05-02T22:53:21.332Z,101269.30
2023-05-02T22:55:50.221Z,101272.56
2023-05-02T22:58:18.702Z,101270.20
2023-05-02T23:00:47.102Z,101270.41
2023-05-02T23:03:15.685Z,101269.55
2023-05-02T23:05:44.420Z,101267.10
2023-05-02T23:08:12.854Z,101272.11
2023-05-02T23:10:41.301Z,101273.92
2023-05-02T23:13:09.820Z,101274.58
2023-05-02T23:15:39.284Z,101277.29
2023-05-02T23:18:08.230Z,101279.39
2023-05-02T23:20:36.757Z,101273.44
2023-05-02T23:23:06.424Z,101272.73
2023-05-02T23:25:35.889Z,101272.30
2023-05-02T23:28:04.570Z,101277.61
2023-05-02T23:30:33.795Z,101276.42
2023-05-02T23:33:02.653Z,101279.84
2023-05-02T23:35:31.846Z,101276.68
2023-05-02T23:38:02.824Z,101284.66
2023-05-02T23:40:32.134Z,101279.11
2023-05-02T23:43:01.930Z,101280.97
2023-05-02T23:45:30.588Z,101286.88
2023-05-02T23:47:59.169Z,101290.81
2023-05-02T23:50:28.360Z,101292.11
2023-05-02T23:52:56.660Z,101298.34
2023-05-02T23:55:25.157Z,101301.86
2023-05-02T23:57:54.028Z,101305.77
